sensor_id;sensor_type;location;lat;lon;timestamp;pressure;altitude;pressure_sealevel;temperature;humidity
5574;BME280;2563;52.242;7.956;2023-09-19T00:00:46;99807.41;;;15.82;100.00
5574;BME280;2563;52.242;7.956;2023-09-19T00:03:12;99800.38;;;15.84;100.00
5574;BME280;2563;52.242;7.956;2023-09-19T00:05:39;99781.47;;;15.82;100.00
5574;BME280;2563;52.242;7.956;2023-09-19T00:08:05;99775.38;;;15.83;100.00
5574;BME280;2563;52.242;7.956;2023-09-19T00:10:32;99752.03;;;15.83;100.00
5574;BME280;2563;52.242;7.956;2023-09-19T00:13:01;99762.66;;;15.79;100.00
5574;BME280;2563;52.242;7.956;2023-09-19T00:15:37;99762.56;;;15.80;100.00
5574;BME280;2563;52.242;7.956;2023-09-19T00:18:04;99764.06;;;15.84;100.00
5574;BME280;2563;52.242;7.956;2023-09-19T00:20:32;99753.69;;;15.84;100.00
5574;BME280;2563;52.242;7.956;2023-09-19T00:23:00;99758.03;;;15.84;100.00
5574;BME280;2563;52.242;7.956;2023-09-19T00:25:31;99755.53;;;15.82;100.00
5574;BME280;2563;52.242;7.956;2023-09-19T00:27:57;99729.84;;;15.78;100.00
5574;BME280;2563;52.242;7.956;2023-09-19T00:30:23;99743.19;;;15.71;100.00
5574;BME280;2563;52.242;7.956;2023-09-19T00:32:50;99757.94;;;15.71;100.00
5574;BME280;2563;52.242;7.956;2023-09-19T00:35:22;99757.75;;;15.74;100.00
5574;BME280;2563;52.242;7.956;2023-09-19T00:37:51;99749.22;;;15.72;100.00
5574;BME280;2563;52.242;7.956;2023-09-19T00:40:17;99740.84;;;15.67;100.00
5574;BME280;2563;52.242;7.956;2023-09-19T00:42:47;99759.81;;;15.67;100.00
5574;BME280;2563;52.242;7.956;2023-09-19T00:45:14;99749.38;;;15.69;100.00
5574;BME280;2563;52.242;7.956;2023-09-19T00:47:45;99756.59;;;15.64;100.00
5574;BME280;2563;52.242;7.956;2023-09-19T00:50:13;99758.25;;;15.65;100.00
5574;BME280;2563;52.242;7.956;2023-09-19T00:52:40;99766.03;;;15.65;100.00
5574;BME280;2563;52.242;7.956;2023-09-19T00:55:08;99776.41;;;15.65;100.00
5574;BME280;2563;52.242;7.956;2023-09-19T00:57:34;99802.16;;;15.68;100.00
5574;BME280;2563;52.242;7.956;2023-09-19T01:00:02;99809.88;;;15.69;100.00
5574;BME280;2563;52.242;7.956;2023-09-19T01:02:34;99833.41;;;15.66;100.00
5574;BME280;2563;52.242;7.956;2023-09-19T01:04:59;99863.09;;;15.61;100.00
5574;BME280;2563;52.242;7.956;2023-09-19T01:07:26;99895.91;;;15.62;100.00
5574;BME280;2563;52.242;7.956;2023-09-19T01:09:56;99919.34;;;15.60;100.00
5574;BME280;2563;52.242;7.956;2023-09-19T01:12:30;99941.84;;;15.60;100.00
5574;BME280;2563;52.242;7.956;2023-09-19T01:15:09;99966.13;;;15.59;100.00
5574;BME280;2563;52.242;7.956;2023-09-19T01:17:46;99987.13;;;15.54;100.00
5574;BME280;2563;52.242;7.956;2023-09-19T01:20:26;100014.81;;;15.53;100.00
5574;BME280;2563;52.242;7.956;2023-09-19T01:23:13;100019.34;;;15.50;100.00
5574;BME280;2563;52.242;7.956;2023-09-19T01:28:53;100051.25;;;15.35;100.00
5574;BME280;2563;52.242;7.956;2023-09-19T01:31:23;100074.69;;;15.33;100.00
5574;BME280;2563;52.242;7.956;2023-09-19T01:33:54;100076.59;;;15.29;100.00
5574;BME280;2563;52.242;7.956;2023-09-19T01:36:25;100096.06;;;15.21;100.00
5574;BME280;2563;52.242;7.956;2023-09-19T01:38:51;100098.94;;;15.15;100.00
5574;BME280;2563;52.242;7.956;2023-09-19T01:41:26;100124.88;;;15.15;100.00
5574;BME280;2563;52.242;7.956;2023-09-19T01:43:52;100119.09;;;15.09;100.00
5574;BME280;2563;52.242;7.956;2023-09-19T01:46:39;100134.63;;;15.09;100.00
5574;BME280;2563;52.242;7.956;2023-09-19T01:49:15;100134.63;;;15.09;100.00
5574;BME280;2563;52.242;7.956;2023-09-19T01:51:56;100140.81;;;15.07;100.00
5574;BME280;2563;52.242;7.956;2023-09-19T01:54:28;100140.28;;;15.00;100.00
5574;BME280;2563;52.242;7.956;2023-09-19T01:57:28;100143.91;;;14.96;100.00
5574;BME280;2563;52.242;7.956;2023-09-19T02:00:01;100135.41;;;14.94;100.00
5574;BME280;2563;52.242;7.956;2023-09-19T02:02:35;100137.34;;;14.89;100.00
5574;BME280;2563;52.242;7.956;2023-09-19T02:05:02;100142.41;;;14.92;100.00
5574;BME280;2563;52.242;7.956;2023-09-19T02:07:29;100143.91;;;14.96;100.00
5574;BME280;2563;52.242;7.956;2023-09-19T02:09:57;100143.91;;;14.96;100.00
5574;BME280;2563;52.242;7.956;2023-09-19T02:12:24;100146.50;;;14.96;100.00
5574;BME280;2563;52.242;7.956;2023-09-19T02:14:49;100137.06;;;14.95;100.00
5574;BME280;2563;52.242;7.956;2023-09-19T02:17:14;100143.25;;;14.93;100.00
5574;BME280;2563;52.242;7.956;2023-09-19T02:19:40;100142.53;;;14.89;100.00
5574;BME280;2563;52.242;7.956;2023-09-19T02:22:06;100151.19;;;14.89;100.00
5574;BME280;2563;52.242;7.956;2023-09-19T02:24:36;100151.09;;;14.91;100.00
5574;BME280;2563;52.242;7.956;2023-09-19T02:27:03;100148.59;;;14.89;100.00
5574;BME280;2563;52.242;7.956;2023-09-19T02:29:29;100148.09;;;14.81;100.00
5574;BME280;2563;52.242;7.956;2023-09-19T02:31:55;100150.38;;;14.70;100.00
5574;BME280;2563;52.242;7.956;2023-09-19T02:34:24;100151.03;;;14.56;100.00
5574;BME280;2563;52.242;7.956;2023-09-19T02:36:50;100160.09;;;14.46;100.00
5574;BME280;2563;52.242;7.956;2023-09-19T02:39:17;100164.81;;;14.38;100.00
5574;BME280;2563;52.242;7.956;2023-09-19T02:41:43;100167.66;;;14.32;100.00
5574;BME280;2563;52.242;7.956;2023-09-19T02:44:08;100178.94;;;14.31;100.00
5574;BME280;2563;52.242;7.956;2023-09-19T02:46:34;100186.84;;;14.28;100.00
5574;BME280;2563;52.242;7.956;2023-09-19T02:49:01;100188.94;;;14.19;100.00
5574;BME280;2563;52.242;7.956;2023-09-19T02:51:28;100212.56;;;14.12;100.00
5574;BME280;2563;52.242;7.956;2023-09-19T02:53:53;100223.97;;;14.08;100.00
5574;BME280;2563;52.242;7.956;2023-09-19T02:56:19;100224.03;;;14.06;100.00
5574;BME280;2563;52.242;7.956;2023-09-19T02:58:45;100234.25;;;14.09;100.00
5574;BME280;2563;52.242;7.956;2023-09-19T03:01:10;100245.59;;;14.07;100.00
5574;BME280;2563;52.242;7.956;2023-09-19T03:03:39;100248.22;;;14.05;100.00
5574;BME280;2563;52.242;7.956;2023-09-19T03:06:06;100257.16;;;13.98;100.00
5574;BME280;2563;52.242;7.956;2023-09-19T03:08:34;100263.50;;;13.91;100.00
5574;BME280;2563;52.242;7.956;2023-09-19T03:11:03;100262.53;;;13.93;100.00
5574;BME280;2563;52.242;7.956;2023-09-19T03:13:28;100277.13;;;13.96;100.00
5574;BME280;2563;52.242;7.956;2023-09-19T03:15:56;100269.34;;;13.96;100.00
5574;BME280;2563;52.242;7.956;2023-09-19T03:18:24;100280.44;;;13.98;100.00
5574;BME280;2563;52.242;7.956;2023-09-19T03:20:54;100267.97;;;13.87;100.00
5574;BME280;2563;52.242;7.956;2023-09-19T03:23:20;100279.22;;;13.86;100.00
5574;BME280;2563;52.242;7.956;2023-09-19T03:25:45;100286.09;;;13.87;100.00
5574;BME280;2563;52.242;7.956;2023-09-19T03:28:11;100285.25;;;13.87;100.00
5574;BME280;2563;52.242;7.956;2023-09-19T03:30:37;100293.38;;;13.98;100.00
5574;BME280;2563;52.242;7.956;2023-09-19T03:33:03;100290.41;;;14.07;100.00
5574;BME280;2563;52.242;7.956;2023-09-19T03:35:30;100290.22;;;14.12;100.00
5574;BME280;2563;52.242;7.956;2023-09-19T03:37:55;100292.88;;;14.10;100.00
5574;BME280;2563;52.242;7.956;2023-09-19T03:40:21;100293.97;;;14.04;100.00
5574;BME280;2563;52.242;7.956;2023-09-19T03:42:47;100287.47;;;13.96;100.00
5574;BME280;2563;52.242;7.956;2023-09-19T03:45:13;100294.50;;;13.92;100.00
5574;BME280;2563;52.242;7.956;2023-09-19T03:47:41;100288.63;;;13.89;100.00
5574;BME280;2563;52.242;7.956;2023-09-19T03:50:06;100279.50;;;13.80;100.00
5574;BME280;2563;52.242;7.956;2023-09-19T03:52:40;100291.47;;;13.82;100.00
5574;BME280;2563;52.242;7.956;2023-09-19T03:55:06;100286.22;;;13.84;100.00
5574;BME280;2563;52.242;7.956;2023-09-19T03:57:31;100278.53;;;13.82;100.00
5574;BME280;2563;52.242;7.956;2023-09-19T03:59:57;100274.19;;;13.83;100.00
5574;BME280;2563;52.242;7.956;2023-09-19T04:02:23;100284.72;;;13.78;100.00
5574;BME280;2563;52.242;7.956;2023-09-19T04:04:50;100282.50;;;13.69;100.00
5574;BME280;2563;52.242;7.956;2023-09-19T04:07:16;100289.53;;;13.67;100.00
5574;BME280;2563;52.242;7.956;2023-09-19T04:09:42;100301.41;;;13.71;100.00
5574;BME280;2563;52.242;7.956;2023-09-19T04:12:07;100311.75;;;13.71;100.00
5574;BME280;2563;52.242;7.956;2023-09-19T04:14:36;100309.16;;;13.71;100.00
5574;BME280;2563;52.242;7.956;2023-09-19T04:17:01;100292.63;;;13.75;100.00
5574;BME280;2563;52.242;7.956;2023-09-19T04:19:27;100287.69;;;13.69;100.00
5574;BME280;2563;52.242;7.956;2023-09-19T04:21:52;100289.38;;;13.70;100.00
5574;BME280;2563;52.242;7.956;2023-09-19T04:24:18;100285.88;;;13.71;100.00
5574;BME280;2563;52.242;7.956;2023-09-19T04:26:45;100290.09;;;13.74;100.00
5574;BME280;2563;52.242;7.956;2023-09-19T04:29:10;100289.25;;;13.73;100.00
5574;BME280;2563;52.242;7.956;2023-09-19T04:31:38;100292.47;;;13.78;100.00
5574;BME280;2563;52.242;7.956;2023-09-19T04:34:06;100283.06;;;13.77;100.00
5574;BME280;2563;52.242;7.956;2023-09-19T04:36:31;100287.44;;;13.75;100.00
5574;BME280;2563;52.242;7.956;2023-09-19T04:38:57;100289.56;;;13.66;100.00
5574;BME280;2563;52.242;7.956;2023-09-19T04:41:22;100289.91;;;13.58;100.00
5574;BME280;2563;52.242;7.956;2023-09-19T04:43:48;100297.66;;;13.58;100.00
5574;BME280;2563;52.242;7.956;2023-09-19T04:46:16;100290.69;;;13.60;100.00
5574;BME280;2563;52.242;7.956;2023-09-19T04:48:42;100270.19;;;13.55;100.00
5574;BME280;2563;52.242;7.956;2023-09-19T04:51:08;100273.06;;;13.48;100.00
5574;BME280;2563;52.242;7.956;2023-09-19T04:53:33;100275.25;;;13.36;100.00
5574;BME280;2563;52.242;7.956;2023-09-19T04:55:58;100273.69;;;13.32;100.00
5574;BME280;2563;52.242;7.956;2023-09-19T04:58:24;100272.34;;;13.22;100.00
5574;BME280;2563;52.242;7.956;2023-09-19T05:00:49;100284.72;;;13.14;100.00
5574;BME280;2563;52.242;7.956;2023-09-19T05:03:16;100289.16;;;13.10;100.00
5574;BME280;2563;52.242;7.956;2023-09-19T05:05:42;100309.09;;;13.07;100.00
5574;BME280;2563;52.242;7.956;2023-09-19T05:08:08;100310.13;;;13.03;100.00
5574;BME280;2563;52.242;7.956;2023-09-19T05:10:34;100320.53;;;13.01;100.00
5574;BME280;2563;52.242;7.956;2023-09-19T05:13:03;100313.84;;;12.95;100.00
5574;BME280;2563;52.242;7.956;2023-09-19T05:15:29;100327.91;;;12.88;100.00
5574;BME280;2563;52.242;7.956;2023-09-19T05:17:55;100336.66;;;12.84;100.00
5574;BME280;2563;52.242;7.956;2023-09-19T05:20:21;100339.38;;;12.81;100.00
5574;BME280;2563;52.242;7.956;2023-09-19T05:23:07;100343.75;;;12.79;100.00
5574;BME280;2563;52.242;7.956;2023-09-19T05:25:38;100334.78;;;12.88;100.00
5574;BME280;2563;52.242;7.956;2023-09-19T05:28:09;100338.22;;;12.88;100.00
5574;BME280;2563;52.242;7.956;2023-09-19T05:30:37;100328.78;;;12.87;100.00
5574;BME280;2563;52.242;7.956;2023-09-19T05:33:04;100330.38;;;12.91;100.00
5574;BME280;2563;52.242;7.956;2023-09-19T05:35:30;100324.94;;;12.97;100.00
5574;BME280;2563;52.242;7.956;2023-09-19T05:37:56;100326.31;;;13.08;100.00
5574;BME280;2563;52.242;7.956;2023-09-19T05:40:24;100306.13;;;13.39;100.00
5574;BME280;2563;52.242;7.956;2023-09-19T05:42:49;100271.34;;;14.49;100.00
5574;BME280;2563;52.242;7.956;2023-09-19T05:45:17;100240.63;;;15.68;100.00
5574;BME280;2563;52.242;7.956;2023-09-19T05:47:50;100188.81;;;16.17;100.00
5574;BME280;2563;52.242;7.956;2023-09-19T05:50:16;100140.13;;;16.84;100.00
5574;BME280;2563;52.242;7.956;2023-09-19T05:52:42;100151.19;;;16.88;100.00
5574;BME280;2563;52.242;7.956;2023-09-19T05:55:09;100157.69;;;17.55;100.00
5574;BME280;2563;52.242;7.956;2023-09-19T05:57:36;100169.78;;;17.99;100.00
5574;BME280;2563;52.242;7.956;2023-09-19T06:00:08;100209.06;;;17.82;100.00
5574;BME280;2563;52.242;7.956;2023-09-19T06:02:36;100224.56;;;18.12;100.00
5574;BME280;2563;52.242;7.956;2023-09-19T06:05:01;100219.59;;;18.50;100.00
5574;BME280;2563;52.242;7.956;2023-09-19T06:07:26;100233.97;;;18.29;100.00
5574;BME280;2563;52.242;7.956;2023-09-19T06:10:01;100214.56;;;18.76;100.00
5574;BME280;2563;52.242;7.956;2023-09-19T06:12:26;100194.25;;;19.34;100.00
5574;BME280;2563;52.242;7.956;2023-09-19T06:14:53;100158.59;;;19.86;100.00
5574;BME280;2563;52.242;7.956;2023-09-19T06:17:19;100080.47;;;18.66;100.00
5574;BME280;2563;52.242;7.956;2023-09-19T06:19:45;100031.63;;;19.33;100.00
5574;BME280;2563;52.242;7.956;2023-09-19T06:22:15;99971.50;;;17.50;100.00
5574;BME280;2563;52.242;7.956;2023-09-19T06:24:43;99981.81;;;19.37;100.00
5574;BME280;2563;52.242;7.956;2023-09-19T06:27:08;99991.19;;;20.13;100.00
5574;BME280;2563;52.242;7.956;2023-09-19T06:29:34;100071.97;;;20.99;100.00
5574;BME280;2563;52.242;7.956;2023-09-19T06:31:59;100031.56;;;21.26;100.00
5574;BME280;2563;52.242;7.956;2023-09-19T06:34:24;99972.91;;;20.48;100.00
5574;BME280;2563;52.242;7.956;2023-09-19T06:36:51;99943.75;;;21.22;100.00
5574;BME280;2563;52.242;7.956;2023-09-19T06:39:17;99924.78;;;22.28;100.00
5574;BME280;2563;52.242;7.956;2023-09-19T06:41:42;99856.34;;;19.03;100.00
5574;BME280;2563;52.242;7.956;2023-09-19T06:44:07;99891.03;;;17.19;100.00
5574;BME280;2563;52.242;7.956;2023-09-19T06:46:34;99945.84;;;16.43;100.00
5574;BME280;2563;52.242;7.956;2023-09-19T06:49:01;100010.41;;;16.49;100.00
5574;BME280;2563;52.242;7.956;2023-09-19T06:51:31;100026.41;;;15.80;100.00
5574;BME280;2563;52.242;7.956;2023-09-19T06:53:56;100076.13;;;15.72;100.00
5574;BME280;2563;52.242;7.956;2023-09-19T06:56:23;100112.53;;;15.53;100.00
5574;BME280;2563;52.242;7.956;2023-09-19T06:58:50;100150.03;;;15.47;100.00
5574;BME280;2563;52.242;7.956;2023-09-19T07:01:16;100177.09;;;15.42;100.00
5574;BME280;2563;52.242;7.956;2023-09-19T07:03:43;100191.72;;;15.60;100.00
5574;BME280;2563;52.242;7.956;2023-09-19T07:06:10;100210.72;;;15.61;100.00
5574;BME280;2563;52.242;7.956;2023-09-19T07:08:36;100241.97;;;15.77;100.00
5574;BME280;2563;52.242;7.956;2023-09-19T07:11:01;100254.75;;;16.30;100.00
5574;BME280;2563;52.242;7.956;2023-09-19T07:13:26;100211.41;;;16.64;100.00
5574;BME280;2563;52.242;7.956;2023-09-19T07:15:52;100217.81;;;17.05;100.00
5574;BME280;2563;52.242;7.956;2023-09-19T07:18:19;100223.94;;;17.64;100.00
5574;BME280;2563;52.242;7.956;2023-09-19T07:20:45;100216.13;;;18.23;100.00
5574;BME280;2563;52.242;7.956;2023-09-19T07:23:15;100261.59;;;19.42;100.00
5574;BME280;2563;52.242;7.956;2023-09-19T07:25:40;100269.09;;;20.63;100.00
5574;BME280;2563;52.242;7.956;2023-09-19T07:28:06;100231.22;;;21.17;100.00
5574;BME280;2563;52.242;7.956;2023-09-19T07:30:31;100171.09;;;21.62;100.00
5574;BME280;2563;52.242;7.956;2023-09-19T07:32:57;100112.88;;;23.11;100.00
5574;BME280;2563;52.242;7.956;2023-09-19T07:35:22;100042.25;;;23.39;100.00
5574;BME280;2563;52.242;7.956;2023-09-19T07:37:48;99966.03;;;22.15;100.00
5574;BME280;2563;52.242;7.956;2023-09-19T07:40:18;99958.06;;;20.13;100.00
5574;BME280;2563;52.242;7.956;2023-09-19T07:42:44;99977.81;;;20.17;100.00
5574;BME280;2563;52.242;7.956;2023-09-19T07:45:12;99980.81;;;19.63;100.00
5574;BME280;2563;52.242;7.956;2023-09-19T07:47:49;99998.88;;;19.66;100.00
5574;BME280;2563;52.242;7.956;2023-09-19T07:50:18;100012.78;;;19.67;100.00
5574;BME280;2563;52.242;7.956;2023-09-19T07:52:45;100017.59;;;19.73;100.00
5574;BME280;2563;52.242;7.956;2023-09-19T07:55:11;100011.16;;;18.89;100.00
5574;BME280;2563;52.242;7.956;2023-09-19T07:57:37;100052.72;;;19.05;100.00
5574;BME280;2563;52.242;7.956;2023-09-19T08:00:03;100080.31;;;18.42;100.00
5574;BME280;2563;52.242;7.956;2023-09-19T08:02:39;100085.53;;;17.72;100.00
5574;BME280;2563;52.242;7.956;2023-09-19T08:05:06;100128.69;;;17.90;100.00
5574;BME280;2563;52.242;7.956;2023-09-19T08:07:35;100138.53;;;17.56;100.00
5574;BME280;2563;52.242;7.956;2023-09-19T08:10:02;100157.84;;;17.52;100.00
5574;BME280;2563;52.242;7.956;2023-09-19T08:12:27;100177.63;;;17.40;100.00
5574;BME280;2563;52.242;7.956;2023-09-19T08:14:53;100205.19;;;17.73;100.00
5574;BME280;2563;52.242;7.956;2023-09-19T08:17:18;100231.94;;;17.91;100.00
5574;BME280;2563;52.242;7.956;2023-09-19T08:19:45;100238.88;;;18.34;100.00
5574;BME280;2563;52.242;7.956;2023-09-19T08:22:11;100243.38;;;18.03;100.00
5574;BME280;2563;52.242;7.956;2023-09-19T08:24:36;100263.56;;;18.14;100.00
5574;BME280;2563;52.242;7.956;2023-09-19T08:27:03;100274.72;;;18.16;100.00
5574;BME280;2563;52.242;7.956;2023-09-19T08:29:30;100292.97;;;18.44;100.00
5574;BME280;2563;52.242;7.956;2023-09-19T08:31:59;100281.44;;;18.20;100.00
5574;BME280;2563;52.242;7.956;2023-09-19T08:34:25;100291.47;;;18.40;100.00
5574;BME280;2563;52.242;7.956;2023-09-19T08:36:54;100306.81;;;18.59;100.00
5574;BME280;2563;52.242;7.956;2023-09-19T08:39:24;100295.94;;;18.10;100.00
5574;BME280;2563;52.242;7.956;2023-09-19T08:41:49;100315.88;;;18.39;100.00
5574;BME280;2563;52.242;7.956;2023-09-19T08:44:15;100324.78;;;18.06;100.00
5574;BME280;2563;52.242;7.956;2023-09-19T08:46:41;100340.25;;;18.38;100.00
5574;BME280;2563;52.242;7.956;2023-09-19T08:52:22;100343.59;;;18.55;100.00
5574;BME280;2563;52.242;7.956;2023-09-19T08:54:53;100346.69;;;18.47;100.00
5574;BME280;2563;52.242;7.956;2023-09-19T08:57:22;100357.03;;;18.91;100.00
5574;BME280;2563;52.242;7.956;2023-09-19T08:59:48;100344.53;;;18.97;100.00
5574;BME280;2563;52.242;7.956;2023-09-19T09:02:15;100342.28;;;19.05;100.00
5574;BME280;2563;52.242;7.956;2023-09-19T09:04:43;100337.56;;;19.24;100.00
5574;BME280;2563;52.242;7.956;2023-09-19T09:07:12;100339.09;;;19.14;100.00
5574;BME280;2563;52.242;7.956;2023-09-19T09:09:38;100335.75;;;19.12;100.00
5574;BME280;2563;52.242;7.956;2023-09-19T09:12:10;100336.31;;;19.57;100.00
5574;BME280;2563;52.242;7.956;2023-09-19T09:14:39;100330.81;;;19.34;100.00
5574;BME280;2563;52.242;7.956;2023-09-19T09:17:04;100324.00;;;19.59;100.00
5574;BME280;2563;52.242;7.956;2023-09-19T09:19:30;100316.47;;;19.54;100.00
5574;BME280;2563;52.242;7.956;2023-09-19T09:22:08;100322.63;;;20.06;100.00
5574;BME280;2563;52.242;7.956;2023-09-19T09:24:34;100294.94;;;19.91;100.00
5574;BME280;2563;52.242;7.956;2023-09-19T09:27:03;100273.72;;;19.30;100.00
5574;BME280;2563;52.242;7.956;2023-09-19T09:29:44;100274.84;;;19.66;100.00
5574;BME280;2563;52.242;7.956;2023-09-19T09:34:44;100253.88;;;20.18;100.00
5574;BME280;2563;52.242;7.956;2023-09-19T09:37:16;100231.38;;;20.29;100.00
5574;BME280;2563;52.242;7.956;2023-09-19T09:39:55;100220.97;;;20.03;100.00
5574;BME280;2563;52.242;7.956;2023-09-19T09:42:33;100230.41;;;20.55;100.00
5574;BME280;2563;52.242;7.956;2023-09-19T09:45:26;100204.84;;;20.72;100.00
5574;BME280;2563;52.242;7.956;2023-09-19T09:47:59;100212.16;;;21.15;100.00
5574;BME280;2563;52.242;7.956;2023-09-19T09:50:33;100182.22;;;20.71;100.00
5574;BME280;2563;52.242;7.956;2023-09-19T09:53:24;100172.41;;;21.10;100.00
5574;BME280;2563;52.242;7.956;2023-09-19T09:56:09;100171.22;;;21.14;100.00
5574;BME280;2563;52.242;7.956;2023-09-19T09:58:38;100167.84;;;21.36;100.00
5574;BME280;2563;52.242;7.956;2023-09-19T10:01:14;100165.16;;;21.49;100.00
5574;BME280;2563;52.242;7.956;2023-09-19T10:03:43;100150.06;;;21.28;100.00
5574;BME280;2563;52.242;7.956;2023-09-19T10:06:14;100154.69;;;21.82;100.00
5574;BME280;2563;52.242;7.956;2023-09-19T10:09:06;100131.81;;;20.93;100.00
5574;BME280;2563;52.242;7.956;2023-09-19T10:12:05;100145.09;;;20.90;100.00
5574;BME280;2563;52.242;7.956;2023-09-19T10:14:35;100153.38;;;21.65;100.00
5574;BME280;2563;52.242;7.956;2023-09-19T10:17:05;100145.91;;;21.25;100.00
5574;BME280;2563;52.242;7.956;2023-09-19T10:19:37;100152.38;;;20.49;100.00
5574;BME280;2563;52.242;7.956;2023-09-19T10:22:04;100169.66;;;20.76;100.00
5574;BME280;2563;52.242;7.956;2023-09-19T10:24:33;100172.31;;;20.63;100.00
5574;BME280;2563;52.242;7.956;2023-09-19T10:27:01;100156.69;;;20.74;100.00
5574;BME280;2563;52.242;7.956;2023-09-19T10:29:29;100154.66;;;21.02;100.00
5574;BME280;2563;52.242;7.956;2023-09-19T10:31:58;100140.72;;;20.66;100.00
5574;BME280;2563;52.242;7.956;2023-09-19T10:34:25;100166.31;;;20.74;100.00
5574;BME280;2563;52.242;7.956;2023-09-19T10:36:51;100169.47;;;20.29;100.00
5574;BME280;2563;52.242;7.956;2023-09-19T10:39:17;100185.16;;;20.66;100.00
5574;BME280;2563;52.242;7.956;2023-09-19T10:41:50;100190.59;;;20.76;100.00
5574;BME280;2563;52.242;7.956;2023-09-19T10:44:21;100193.28;;;21.80;100.00
5574;BME280;2563;52.242;7.956;2023-09-19T10:46:49;100184.84;;;21.77;100.00
5574;BME280;2563;52.242;7.956;2023-09-19T10:49:14;100156.81;;;22.00;100.00
5574;BME280;2563;52.242;7.956;2023-09-19T10:51:42;100129.75;;;22.33;100.00
5574;BME280;2563;52.242;7.956;2023-09-19T10:54:11;100104.03;;;22.59;100.00
5574;BME280;2563;52.242;7.956;2023-09-19T10:56:50;100053.31;;;22.49;100.00
5574;BME280;2563;52.242;7.956;2023-09-19T10:59:21;99935.69;;;21.80;100.00
5574;BME280;2563;52.242;7.956;2023-09-19T11:01:53;99854.16;;;21.73;100.00
5574;BME280;2563;52.242;7.956;2023-09-19T11:07:11;99647.13;;;21.84;100.00
5574;BME280;2563;52.242;7.956;2023-09-19T11:09:52;99604.34;;;21.43;100.00
5574;BME280;2563;52.242;7.956;2023-09-19T11:15:03;99633.63;;;21.58;100.00
5574;BME280;2563;52.242;7.956;2023-09-19T11:17:39;99622.56;;;21.55;100.00
5574;BME280;2563;52.242;7.956;2023-09-19T11:30:50;99669.69;;;21.13;100.00
5574;BME280;2563;52.242;7.956;2023-09-19T11:49:16;99702.81;;;21.02;100.00
5574;BME280;2563;52.242;7.956;2023-09-19T11:51:46;99702.25;;;21.20;100.00
5574;BME280;2563;52.242;7.956;2023-09-19T11:54:14;99711.00;;;21.93;100.00
5574;BME280;2563;52.242;7.956;2023-09-19T11:56:43;99773.19;;;21.70;100.00
5574;BME280;2563;52.242;7.956;2023-09-19T11:59:10;99838.31;;;21.42;100.00
5574;BME280;2563;52.242;7.956;2023-09-19T12:01:37;99852.78;;;21.58;100.00
5574;BME280;2563;52.242;7.956;2023-09-19T12:04:08;99887.94;;;21.76;100.00
5574;BME280;2563;52.242;7.956;2023-09-19T12:06:36;99904.97;;;21.27;100.00
5574;BME280;2563;52.242;7.956;2023-09-19T12:09:05;99909.50;;;20.80;100.00
5574;BME280;2563;52.242;7.956;2023-09-19T12:11:41;99893.63;;;21.60;100.00
5574;BME280;2563;52.242;7.956;2023-09-19T12:14:09;99890.81;;;21.73;100.00
5574;BME280;2563;52.242;7.956;2023-09-19T12:16:35;99894.03;;;21.22;100.00
5574;BME280;2563;52.242;7.956;2023-09-19T12:19:22;99896.59;;;21.56;100.00
5574;BME280;2563;52.242;7.956;2023-09-19T12:22:01;99917.97;;;21.72;100.00
5574;BME280;2563;52.242;7.956;2023-09-19T12:24:31;99947.16;;;21.67;100.00
5574;BME280;2563;52.242;7.956;2023-09-19T12:27:05;99959.75;;;22.17;100.00
5574;BME280;2563;52.242;7.956;2023-09-19T12:29:31;100006.63;;;21.99;100.00
5574;BME280;2563;52.242;7.956;2023-09-19T12:31:59;100045.16;;;21.65;100.00
5574;BME280;2563;52.242;7.956;2023-09-19T12:34:32;100029.84;;;21.93;100.00
5574;BME280;2563;52.242;7.956;2023-09-19T12:37:11;100043.25;;;21.67;100.00
5574;BME280;2563;52.242;7.956;2023-09-19T12:39:45;100042.03;;;21.71;100.00
5574;BME280;2563;52.242;7.956;2023-09-19T12:42:22;100044.78;;;21.36;100.00
5574;BME280;2563;52.242;7.956;2023-09-19T12:44:50;100038.97;;;21.43;100.00
5574;BME280;2563;52.242;7.956;2023-09-19T12:47:24;100040.66;;;21.56;100.00
5574;BME280;2563;52.242;7.956;2023-09-19T12:50:05;100032.53;;;21.81;100.00
5574;BME280;2563;52.242;7.956;2023-09-19T12:52:49;100035.72;;;21.74;100.00
5574;BME280;2563;52.242;7.956;2023-09-19T12:55:21;100047.22;;;21.50;100.00
5574;BME280;2563;52.242;7.956;2023-09-19T13:00:39;100041.97;;;21.50;100.00
5574;BME280;2563;52.242;7.956;2023-09-19T13:03:25;100054.56;;;21.45;100.00
5574;BME280;2563;52.242;7.956;2023-09-19T13:05:56;100052.56;;;21.49;100.00
5574;BME280;2563;52.242;7.956;2023-09-19T13:13:26;100072.75;;;21.24;100.00
5574;BME280;2563;52.242;7.956;2023-09-19T13:15:53;100043.00;;;20.67;100.00
5574;BME280;2563;52.242;7.956;2023-09-19T13:18:19;100049.84;;;20.81;100.00
5574;BME280;2563;52.242;7.956;2023-09-19T13:21:12;100052.31;;;20.71;100.00
5574;BME280;2563;52.242;7.956;2023-09-19T13:23:42;100045.31;;;20.83;100.00
5574;BME280;2563;52.242;7.956;2023-09-19T13:26:09;100041.25;;;20.79;100.00
5574;BME280;2563;52.242;7.956;2023-09-19T13:28:34;100048.78;;;20.95;100.00
5574;BME280;2563;52.242;7.956;2023-09-19T13:31:00;100062.38;;;20.65;100.00
5574;BME280;2563;52.242;7.956;2023-09-19T13:33:26;100047.97;;;20.59;100.00
5574;BME280;2563;52.242;7.956;2023-09-19T13:35:51;100030.84;;;20.90;100.00
5574;BME280;2563;52.242;7.956;2023-09-19T13:38:17;100045.28;;;22.29;100.00
5574;BME280;2563;52.242;7.956;2023-09-19T13:40:47;100071.69;;;22.70;100.00
5574;BME280;2563;52.242;7.956;2023-09-19T13:43:12;100083.69;;;21.97;100.00
5574;BME280;2563;52.242;7.956;2023-09-19T13:45:38;100078.91;;;21.23;100.00
5574;BME280;2563;52.242;7.956;2023-09-19T13:48:07;100068.91;;;22.07;100.00
5574;BME280;2563;52.242;7.956;2023-09-19T13:50:34;100063.72;;;21.62;100.00
5574;BME280;2563;52.242;7.956;2023-09-19T13:53:01;100070.41;;;21.43;100.00
5574;BME280;2563;52.242;7.956;2023-09-19T13:55:27;100055.88;;;21.51;100.00
5574;BME280;2563;52.242;7.956;2023-09-19T13:57:53;100064.16;;;22.01;100.00
5574;BME280;2563;52.242;7.956;2023-09-19T14:00:22;100070.38;;;21.77;100.00